Time;durP1;ratioP1;P1;durP2;ratioP2;P2;SDS_P1;SDS_P2;PMS_P1;PMS_P2;Temp;Humidity;BMP_temperature;BMP_pressure;BME280_temperature;BME280_humidity;BME280_pressure;Samples;Min_cycle;Max_cycle;Signal;HPM_P1;HPM_P2
2023/01/09 00:01:41;;;;;;;0.30;0.30;;;;;;;;;;4502063;28;20036;-61
2023/01/09 00:03:51;;;;;;;0.50;0.30;;;;;;;;;;4502091;28;20038;-61
2023/01/09 00:06:01;;;;;;;0.22;0.22;;;;;;;;;;4502531;28;20042;-61
2023/01/09 00:08:12;;;;;;;0.20;0.20;;;;;;;;;;4502403;28;20044;-61
2023/01/09 00:10:22;;;;;;;0.30;0.30;;;;;;;;;;4502920;28;20541;-61
2023/01/09 00:12:33;;;;;;;0.30;0.30;;;;;;;;;;4502404;28;20145;-61
2023/01/09 00:14:43;;;;;;;0.20;0.20;;;;;;;;;;4502714;28;20040;-62
2023/01/09 00:16:54;;;;;;;0.22;0.22;;;;;;;;;;4502568;28;20561;-61
2023/01/09 00:19:04;;;;;;;0.20;0.20;;;;;;;;;;4502211;28;20038;-61
2023/01/09 00:21:14;;;;;;;0.20;0.20;;;;;;;;;;4502795;28;20752;-61
2023/01/09 00:23:25;;;;;;;0.20;0.20;;;;;;;;;;4502239;28;20046;-61
2023/01/09 00:25:35;;;;;;;0.20;0.20;;;;;;;;;;4502395;28;20038;-61
2023/01/09 00:27:45;;;;;;;0.20;0.20;;;;;;;;;;4501974;28;20045;-60
2023/01/09 00:29:57;;;;;;;0.20;0.20;;;;;;;;;;4502900;28;20116;-61
2023/01/09 00:32:09;;;;;;;0.20;0.20;;;;;;;;;;4502492;28;20113;-61
2023/01/09 00:34:19;;;;;;;0.20;0.20;;;;;;;;;;4502737;28;20130;-60
2023/01/09 00:36:29;;;;;;;0.30;0.20;;;;;;;;;;4502537;28;20540;-60
2023/01/09 00:38:40;;;;;;;0.10;0.10;;;;;;;;;;4502453;28;20034;-60
2023/01/09 00:40:51;;;;;;;0.30;0.30;;;;;;;;;;4502518;28;20092;-61
2023/01/09 00:43:01;;;;;;;0.10;0.10;;;;;;;;;;4502112;28;20038;-61
2023/01/09 00:45:17;;;;;;;0.20;0.20;;;;;;;;;;4502254;28;20402;-61
2023/01/09 00:47:32;;;;;;;0.20;0.20;;;;;;;;;;4502469;28;20053;-61
2023/01/09 00:49:43;;;;;;;0.20;0.20;;;;;;;;;;4502002;28;20049;-61
2023/01/09 00:51:54;;;;;;;0.20;0.20;;;;;;;;;;4502530;28;20042;-61
2023/01/09 00:54:04;;;;;;;0.20;0.20;;;;;;;;;;4502671;28;20038;-60
2023/01/09 00:56:17;;;;;;;0.10;0.10;;;;;;;;;;4502219;28;20218;-61
2023/01/09 00:58:27;;;;;;;0.10;0.10;;;;;;;;;;4502027;28;20030;-61
2023/01/09 01:00:37;;;;;;;0.20;0.20;;;;;;;;;;4502299;28;20596;-61
2023/01/09 01:02:48;;;;;;;0.10;0.10;;;;;;;;;;4502484;28;20129;-61
2023/01/09 01:07:39;;;;;;;0.20;0.10;;;;;;;;;;4502105;28;20764;-61
2023/01/09 01:09:50;;;;;;;0.10;0.10;;;;;;;;;;4502253;28;20738;-60
2023/01/09 01:12:05;;;;;;;0.20;0.20;;;;;;;;;;4502021;28;20064;-60
2023/01/09 01:14:16;;;;;;;0.20;0.20;;;;;;;;;;4501355;28;20041;-60
2023/01/09 01:16:26;;;;;;;0.10;0.10;;;;;;;;;;4501681;28;20497;-61
2023/01/09 01:18:37;;;;;;;0.22;0.20;;;;;;;;;;4501720;28;20204;-61
2023/01/09 01:20:47;;;;;;;0.10;0.10;;;;;;;;;;4501658;28;20042;-61
2023/01/09 01:22:57;;;;;;;0.20;0.20;;;;;;;;;;4502122;28;20048;-61
2023/01/09 01:25:08;;;;;;;0.10;0.10;;;;;;;;;;4502112;28;20052;-61
2023/01/09 01:27:18;;;;;;;0.20;0.20;;;;;;;;;;4504430;28;20057;-60
2023/01/09 01:29:29;;;;;;;0.10;0.10;;;;;;;;;;4504051;28;20038;-60
2023/01/09 01:31:39;;;;;;;0.20;0.20;;;;;;;;;;4504747;28;20141;-61
2023/01/09 01:33:49;;;;;;;0.15;0.15;;;;;;;;;;4505226;28;20038;-61
2023/01/09 01:36:01;;;;;;;0.25;0.20;;;;;;;;;;4519866;28;20044;-61
2023/01/09 01:38:11;;;;;;;0.13;0.13;;;;;;;;;;4503411;28;20040;-61
2023/01/09 01:40:21;;;;;;;0.20;0.20;;;;;;;;;;4504427;28;20034;-60
2023/01/09 01:42:32;;;;;;;0.52;0.20;;;;;;;;;;4504526;28;20581;-61
2023/01/09 01:45:00;;;;;;;0.10;0.10;;;;;;;;;;4504964;28;20479;-60
2023/01/09 01:47:11;;;;;;;0.13;0.13;;;;;;;;;;4504692;28;20113;-61
2023/01/09 01:49:22;;;;;;;0.20;0.20;;;;;;;;;;4504397;28;20480;-61
2023/01/09 01:51:34;;;;;;;0.20;0.20;;;;;;;;;;4504275;28;20042;-60
2023/01/09 01:53:47;;;;;;;0.10;0.10;;;;;;;;;;4504502;28;20133;-60
2023/01/09 01:56:02;;;;;;;0.17;0.17;;;;;;;;;;4503535;28;20041;-61
2023/01/09 01:58:14;;;;;;;0.25;0.10;;;;;;;;;;4502314;28;20069;-62
2023/01/09 02:00:28;;;;;;;0.10;0.10;;;;;;;;;;4504566;28;20097;-61
2023/01/09 02:02:39;;;;;;;0.10;0.10;;;;;;;;;;4504261;28;20038;-61
2023/01/09 02:04:50;;;;;;;0.10;0.10;;;;;;;;;;4504814;28;20073;-60
2023/01/09 02:07:03;;;;;;;0.20;0.10;;;;;;;;;;4504487;28;20125;-60
2023/01/09 02:09:14;;;;;;;0.10;0.10;;;;;;;;;;4504156;28;20041;-60
2023/01/09 02:11:25;;;;;;;0.13;0.13;;;;;;;;;;4504530;28;20497;-60
2023/01/09 02:13:37;;;;;;;0.10;0.10;;;;;;;;;;4502983;28;20109;-63
2023/01/09 02:15:59;;;;;;;0.43;0.10;;;;;;;;;;4504241;28;20105;-60
2023/01/09 02:18:10;;;;;;;0.20;0.10;;;;;;;;;;4504352;28;20034;-60
2023/01/09 02:20:23;;;;;;;0.13;0.10;;;;;;;;;;4504291;28;20037;-60
2023/01/09 02:22:52;;;;;;;0.10;0.10;;;;;;;;;;4504214;28;20144;-61
2023/01/09 02:25:05;;;;;;;0.13;0.10;;;;;;;;;;4504029;28;20030;-60
2023/01/09 02:27:34;;;;;;;0.10;0.10;;;;;;;;;;4502166;28;20030;-60
2023/01/09 02:29:52;;;;;;;0.10;0.10;;;;;;;;;;4503448;28;20570;-60
2023/01/09 02:32:11;;;;;;;0.13;0.10;;;;;;;;;;4504566;28;20025;-60
2023/01/09 02:34:40;;;;;;;0.20;0.15;;;;;;;;;;4503951;28;20046;-61
2023/01/09 02:36:59;;;;;;;0.10;0.10;;;;;;;;;;4503497;28;20033;-60
2023/01/09 02:39:22;;;;;;;0.10;0.10;;;;;;;;;;4503651;28;20057;-60
2023/01/09 02:41:37;;;;;;;0.10;0.10;;;;;;;;;;4503793;28;20565;-61
2023/01/09 02:43:47;;;;;;;0.10;0.10;;;;;;;;;;4503403;28;20133;-61
2023/01/09 02:45:57;;;;;;;0.30;0.30;;;;;;;;;;4504442;28;20453;-61
2023/01/09 02:48:11;;;;;;;0.68;0.68;;;;;;;;;;4503707;28;20046;-61
2023/01/09 02:50:23;;;;;;;0.10;0.10;;;;;;;;;;4503795;28;20678;-60
2023/01/09 02:52:46;;;;;;;0.15;0.15;;;;;;;;;;4504018;28;20037;-60
2023/01/09 02:55:17;;;;;;;0.20;0.10;;;;;;;;;;4504488;28;20033;-61
2023/01/09 02:57:27;;;;;;;0.10;0.10;;;;;;;;;;4503910;28;20817;-60
2023/01/09 02:59:46;;;;;;;0.10;0.10;;;;;;;;;;4503194;28;20241;-60
2023/01/09 03:02:05;;;;;;;0.10;0.10;;;;;;;;;;4504358;28;20044;-61
2023/01/09 03:04:21;;;;;;;0.15;0.10;;;;;;;;;;4503818;28;20048;-60
2023/01/09 03:06:34;;;;;;;0.10;0.08;;;;;;;;;;4504085;28;20104;-61
2023/01/09 03:08:47;;;;;;;0.00;0.00;;;;;;;;;;4503589;28;20901;-60
2023/01/09 03:11:03;;;;;;;0.10;0.10;;;;;;;;;;4501890;28;20092;-60
2023/01/09 03:13:16;;;;;;;0.10;0.10;;;;;;;;;;4503497;28;20050;-61
2023/01/09 03:15:27;;;;;;;0.10;0.10;;;;;;;;;;4504089;28;20045;-60
2023/01/09 03:17:39;;;;;;;0.10;0.10;;;;;;;;;;4503326;28;20587;-61
2023/01/09 03:19:52;;;;;;;0.10;0.10;;;;;;;;;;4503046;28;20512;-60
2023/01/09 03:22:02;;;;;;;0.00;0.00;;;;;;;;;;4502935;28;20034;-60
2023/01/09 03:24:12;;;;;;;0.10;0.10;;;;;;;;;;4503198;28;20042;-60
2023/01/09 03:26:23;;;;;;;0.10;0.10;;;;;;;;;;4503277;28;20042;-60
2023/01/09 03:28:33;;;;;;;0.10;0.10;;;;;;;;;;4503072;28;20042;-60
2023/01/09 03:30:43;;;;;;;0.10;0.10;;;;;;;;;;4503356;28;20061;-60
2023/01/09 03:32:54;;;;;;;0.10;0.10;;;;;;;;;;4503192;28;20042;-61
2023/01/09 03:35:05;;;;;;;0.10;0.10;;;;;;;;;;4502831;28;20030;-61
2023/01/09 03:37:15;;;;;;;0.10;0.10;;;;;;;;;;4503221;28;20470;-62
2023/01/09 03:39:25;;;;;;;0.10;0.10;;;;;;;;;;4503240;28;20042;-60
2023/01/09 03:41:36;;;;;;;0.10;0.10;;;;;;;;;;4503317;28;20038;-61
2023/01/09 03:43:47;;;;;;;0.10;0.10;;;;;;;;;;4502534;28;20045;-60
2023/01/09 03:45:57;;;;;;;0.08;0.08;;;;;;;;;;4503244;28;20068;-61
2023/01/09 03:48:07;;;;;;;0.10;0.10;;;;;;;;;;4502129;28;20049;-61
2023/01/09 03:50:18;;;;;;;0.10;0.10;;;;;;;;;;4503139;28;20041;-60
2023/01/09 03:52:28;;;;;;;0.10;0.10;;;;;;;;;;4502916;28;20049;-61
2023/01/09 03:54:38;;;;;;;0.10;0.10;;;;;;;;;;4503261;28;20132;-60
2023/01/09 03:56:49;;;;;;;0.10;0.10;;;;;;;;;;4502622;28;20045;-60
2023/01/09 03:58:59;;;;;;;0.10;0.10;;;;;;;;;;4503072;28;20034;-60
2023/01/09 04:01:11;;;;;;;0.40;0.10;;;;;;;;;;4502772;28;20041;-62
2023/01/09 04:03:21;;;;;;;0.10;0.10;;;;;;;;;;4502836;28;20017;-61
2023/01/09 04:05:32;;;;;;;0.10;0.10;;;;;;;;;;4502536;28;20758;-60
2023/01/09 04:07:42;;;;;;;0.10;0.10;;;;;;;;;;4502751;28;20281;-61
2023/01/09 04:09:52;;;;;;;0.08;0.08;;;;;;;;;;4501719;28;20141;-60
2023/01/09 04:12:03;;;;;;;0.10;0.10;;;;;;;;;;4503029;28;20050;-60
2023/01/09 04:14:13;;;;;;;0.13;0.13;;;;;;;;;;4502570;28;20042;-60
2023/01/09 04:16:23;;;;;;;0.35;0.10;;;;;;;;;;4503031;28;20352;-61
2023/01/09 04:18:34;;;;;;;0.10;0.10;;;;;;;;;;4502181;28;20057;-60
2023/01/09 04:20:46;;;;;;;0.10;0.10;;;;;;;;;;4517313;28;20052;-62
2023/01/09 04:22:58;;;;;;;0.10;0.10;;;;;;;;;;4492196;28;21034;-61
2023/01/09 04:25:08;;;;;;;0.10;0.10;;;;;;;;;;4502726;28;20138;-60
2023/01/09 04:27:19;;;;;;;0.10;0.10;;;;;;;;;;4502351;28;20598;-61
2023/01/09 04:29:29;;;;;;;0.10;0.10;;;;;;;;;;4500791;28;20045;-60
2023/01/09 04:31:39;;;;;;;0.10;0.10;;;;;;;;;;4502366;28;20042;-60
2023/01/09 04:33:49;;;;;;;0.20;0.20;;;;;;;;;;4502492;28;20069;-61
2023/01/09 04:36:00;;;;;;;0.10;0.10;;;;;;;;;;4502493;28;20101;-60
2023/01/09 04:38:10;;;;;;;0.10;0.10;;;;;;;;;;4502187;28;20045;-60
2023/01/09 04:40:20;;;;;;;0.10;0.10;;;;;;;;;;4493158;28;20564;-61
2023/01/09 04:42:31;;;;;;;0.20;0.20;;;;;;;;;;4502553;28;20042;-61
2023/01/09 04:44:41;;;;;;;0.10;0.10;;;;;;;;;;4483929;28;20435;-61
2023/01/09 04:46:52;;;;;;;0.20;0.20;;;;;;;;;;4502653;28;20100;-61
2023/01/09 04:49:02;;;;;;;0.55;0.20;;;;;;;;;;4502221;28;20034;-60
2023/01/09 04:51:12;;;;;;;0.25;0.20;;;;;;;;;;4502510;28;20899;-61
2023/01/09 04:53:23;;;;;;;0.13;0.13;;;;;;;;;;4502236;28;20776;-61
2023/01/09 04:55:33;;;;;;;0.20;0.20;;;;;;;;;;4502540;28;20982;-60
2023/01/09 04:57:43;;;;;;;0.30;0.20;;;;;;;;;;4502237;28;20046;-61
2023/01/09 04:59:54;;;;;;;0.38;0.28;;;;;;;;;;4502294;28;20085;-61
2023/01/09 05:02:04;;;;;;;0.20;0.20;;;;;;;;;;4505208;28;20049;-60
2023/01/09 05:04:14;;;;;;;0.45;0.20;;;;;;;;;;4505382;28;20034;-60
2023/01/09 05:06:25;;;;;;;0.50;0.20;;;;;;;;;;4505549;28;20135;-60
2023/01/09 05:08:35;;;;;;;0.13;0.10;;;;;;;;;;4505173;28;20446;-60
2023/01/09 05:10:45;;;;;;;0.55;0.20;;;;;;;;;;4505010;28;20129;-61
2023/01/09 05:12:55;;;;;;;0.22;0.20;;;;;;;;;;4505227;28;20041;-61
2023/01/09 05:15:07;;;;;;;0.47;0.20;;;;;;;;;;4505523;28;20267;-60
2023/01/09 05:17:17;;;;;;;0.40;0.28;;;;;;;;;;4505220;28;20099;-61
2023/01/09 05:19:28;;;;;;;0.55;0.50;;;;;;;;;;4505244;28;20100;-61
2023/01/09 05:21:38;;;;;;;0.57;0.50;;;;;;;;;;4504879;28;20050;-61
2023/01/09 05:23:48;;;;;;;0.30;0.30;;;;;;;;;;4505569;28;20030;-60
2023/01/09 05:25:59;;;;;;;0.17;0.17;;;;;;;;;;4504123;28;20042;-61
2023/01/09 05:28:09;;;;;;;0.50;0.40;;;;;;;;;;4504771;28;20670;-60
2023/01/09 05:30:19;;;;;;;0.20;0.20;;;;;;;;;;4504942;28;20428;-61
2023/01/09 05:32:30;;;;;;;0.40;0.30;;;;;;;;;;4505105;28;20041;-62
2023/01/09 05:34:40;;;;;;;0.77;0.40;;;;;;;;;;4504891;28;20053;-60
2023/01/09 05:36:50;;;;;;;0.40;0.40;;;;;;;;;;4504684;28;20030;-61
2023/01/09 05:39:01;;;;;;;0.50;0.30;;;;;;;;;;4497367;28;20084;-60
2023/01/09 05:41:11;;;;;;;0.60;0.40;;;;;;;;;;4504724;28;20050;-61
2023/01/09 05:43:22;;;;;;;0.32;0.32;;;;;;;;;;4503832;28;20509;-60
2023/01/09 05:45:32;;;;;;;0.40;0.40;;;;;;;;;;4504951;28;20046;-60
2023/01/09 05:47:43;;;;;;;0.52;0.47;;;;;;;;;;4504702;28;20536;-61
2023/01/09 05:49:55;;;;;;;0.38;0.38;;;;;;;;;;4504476;28;20025;-61
2023/01/09 05:52:06;;;;;;;0.40;0.40;;;;;;;;;;4504375;28;20038;-61
2023/01/09 05:54:17;;;;;;;0.30;0.30;;;;;;;;;;4504469;28;20116;-61
2023/01/09 05:56:28;;;;;;;0.32;0.32;;;;;;;;;;4503564;28;20116;-61
2023/01/09 05:58:39;;;;;;;0.40;0.40;;;;;;;;;;4504245;28;20038;-60
2023/01/09 06:00:50;;;;;;;1.00;0.40;;;;;;;;;;4504142;28;20041;-61
2023/01/09 06:03:01;;;;;;;0.50;0.40;;;;;;;;;;4504630;28;20593;-61
2023/01/09 06:05:11;;;;;;;0.35;0.35;;;;;;;;;;4503704;28;20050;-61
2023/01/09 06:07:21;;;;;;;0.30;0.30;;;;;;;;;;4504384;28;20050;-61
2023/01/09 06:09:32;;;;;;;0.40;0.35;;;;;;;;;;4504463;28;20065;-61
2023/01/09 06:11:42;;;;;;;0.50;0.50;;;;;;;;;;4504208;28;20379;-60
2023/01/09 06:13:52;;;;;;;0.40;0.40;;;;;;;;;;4504051;28;20042;-61
2023/01/09 06:16:03;;;;;;;0.40;0.40;;;;;;;;;;4503872;28;20402;-60
2023/01/09 06:18:13;;;;;;;0.30;0.30;;;;;;;;;;4504270;28;20082;-61
2023/01/09 06:20:23;;;;;;;0.30;0.30;;;;;;;;;;4504318;28;20347;-60
2023/01/09 06:22:34;;;;;;;0.30;0.30;;;;;;;;;;4503926;28;20492;-61
2023/01/09 06:24:44;;;;;;;0.50;0.45;;;;;;;;;;4504136;28;20034;-60
2023/01/09 06:26:54;;;;;;;0.40;0.40;;;;;;;;;;4504016;28;20061;-61
2023/01/09 06:29:04;;;;;;;0.30;0.30;;;;;;;;;;4503913;28;20693;-61
2023/01/09 06:31:15;;;;;;;0.30;0.30;;;;;;;;;;4504078;28;20117;-61
2023/01/09 06:33:25;;;;;;;0.40;0.40;;;;;;;;;;4503449;28;20034;-60
2023/01/09 06:35:35;;;;;;;0.55;0.40;;;;;;;;;;4504009;28;20121;-61
2023/01/09 06:37:46;;;;;;;0.30;0.30;;;;;;;;;;4503667;28;20128;-59
2023/01/09 06:39:57;;;;;;;0.35;0.32;;;;;;;;;;4504362;28;20038;-61
2023/01/09 06:42:07;;;;;;;0.40;0.40;;;;;;;;;;4504156;28;20033;-60
2023/01/09 06:44:17;;;;;;;0.40;0.40;;;;;;;;;;4504260;28;20805;-61
2023/01/09 06:46:28;;;;;;;0.30;0.30;;;;;;;;;;4504255;28;20030;-61
2023/01/09 06:48:38;;;;;;;0.40;0.40;;;;;;;;;;4503700;28;20056;-61
2023/01/09 06:50:48;;;;;;;0.40;0.40;;;;;;;;;;4504252;28;20478;-61
2023/01/09 06:52:58;;;;;;;0.40;0.40;;;;;;;;;;4503903;28;20030;-61
2023/01/09 06:55:09;;;;;;;0.55;0.40;;;;;;;;;;4504137;28;20397;-60
2023/01/09 06:57:19;;;;;;;0.43;0.40;;;;;;;;;;4501417;28;20699;-61
2023/01/09 06:59:29;;;;;;;0.70;0.45;;;;;;;;;;4503070;28;20631;-61
2023/01/09 07:01:40;;;;;;;0.70;0.50;;;;;;;;;;4503158;28;20088;-61
2023/01/09 07:03:50;;;;;;;0.40;0.40;;;;;;;;;;4503402;28;20053;-61
2023/01/09 07:06:00;;;;;;;0.50;0.40;;;;;;;;;;4494112;28;20034;-61
2023/01/09 07:08:11;;;;;;;0.52;0.40;;;;;;;;;;4503117;28;20042;-62
2023/01/09 07:10:21;;;;;;;0.40;0.40;;;;;;;;;;4503414;28;20394;-60
2023/01/09 07:12:31;;;;;;;0.52;0.50;;;;;;;;;;4503332;28;20192;-61
2023/01/09 07:14:42;;;;;;;0.40;0.40;;;;;;;;;;4518397;28;20034;-61
2023/01/09 07:16:52;;;;;;;0.40;0.40;;;;;;;;;;4492103;28;20495;-61
2023/01/09 07:19:02;;;;;;;0.82;0.47;;;;;;;;;;4502763;28;20033;-61
2023/01/09 07:21:13;;;;;;;0.55;0.55;;;;;;;;;;4502615;28;20410;-62
2023/01/09 07:23:23;;;;;;;0.60;0.47;;;;;;;;;;4502456;28;20043;-62
2023/01/09 07:25:33;;;;;;;0.93;0.70;;;;;;;;;;4503014;28;20108;-62
2023/01/09 07:27:44;;;;;;;0.43;0.40;;;;;;;;;;4503093;28;20042;-63
2023/01/09 07:29:54;;;;;;;1.20;0.60;;;;;;;;;;4493319;28;20504;-62
2023/01/09 07:32:04;;;;;;;0.40;0.40;;;;;;;;;;4502439;28;20266;-61
2023/01/09 07:34:15;;;;;;;0.40;0.38;;;;;;;;;;4503249;28;20034;-62
2023/01/09 07:36:25;;;;;;;0.80;0.50;;;;;;;;;;4501032;28;20088;-60
2023/01/09 07:38:35;;;;;;;0.85;0.50;;;;;;;;;;4501708;28;20041;-61
2023/01/09 07:40:46;;;;;;;0.65;0.32;;;;;;;;;;4501754;28;20036;-62
2023/01/09 07:42:56;;;;;;;0.40;0.40;;;;;;;;;;4499613;28;20041;-62
2023/01/09 07:45:07;;;;;;;0.65;0.55;;;;;;;;;;4501215;28;20042;-62
2023/01/09 07:47:17;;;;;;;1.05;0.40;;;;;;;;;;4501769;28;20092;-61
2023/01/09 07:49:28;;;;;;;0.63;0.40;;;;;;;;;;4500920;28;20046;-60
2023/01/09 07:51:41;;;;;;;1.02;0.40;;;;;;;;;;4500883;28;20042;-60
2023/01/09 07:53:52;;;;;;;1.10;0.40;;;;;;;;;;4501034;28;20664;-60
2023/01/09 07:56:02;;;;;;;0.60;0.40;;;;;;;;;;4501165;28;20124;-62
2023/01/09 07:58:12;;;;;;;0.90;0.60;;;;;;;;;;4500481;28;20065;-62
2023/01/09 08:00:23;;;;;;;0.85;0.40;;;;;;;;;;4500666;28;20048;-62
2023/01/09 08:02:33;;;;;;;0.47;0.30;;;;;;;;;;4500362;28;20077;-64
2023/01/09 08:04:43;;;;;;;0.40;0.40;;;;;;;;;;4500186;28;20034;-63
2023/01/09 08:06:54;;;;;;;0.50;0.50;;;;;;;;;;4500727;28;20513;-60
2023/01/09 08:09:04;;;;;;;0.30;0.30;;;;;;;;;;4491275;28;20042;-60
2023/01/09 08:11:15;;;;;;;0.38;0.30;;;;;;;;;;4500875;28;20034;-60
2023/01/09 08:13:25;;;;;;;0.77;0.57;;;;;;;;;;4500157;28;20624;-62
2023/01/09 08:15:35;;;;;;;0.30;0.30;;;;;;;;;;4500915;28;20045;-61
2023/01/09 08:17:46;;;;;;;0.52;0.40;;;;;;;;;;4501116;28;20037;-62
2023/01/09 08:19:56;;;;;;;0.40;0.38;;;;;;;;;;4500418;28;20117;-62
2023/01/09 08:22:06;;;;;;;0.50;0.40;;;;;;;;;;4500786;28;20137;-64
2023/01/09 08:24:16;;;;;;;0.60;0.38;;;;;;;;;;4500488;28;20108;-62
2023/01/09 08:26:27;;;;;;;0.85;0.30;;;;;;;;;;4500878;28;20213;-62
2023/01/09 08:28:37;;;;;;;0.60;0.40;;;;;;;;;;4501122;28;20477;-62
2023/01/09 08:30:47;;;;;;;0.30;0.25;;;;;;;;;;4501278;28;20104;-62
2023/01/09 08:32:58;;;;;;;0.57;0.40;;;;;;;;;;4501901;28;20038;-62
2023/01/09 08:35:08;;;;;;;0.73;0.40;;;;;;;;;;4502689;28;20113;-63
2023/01/09 08:37:19;;;;;;;0.40;0.30;;;;;;;;;;4505621;28;20548;-62
2023/01/09 08:39:29;;;;;;;0.90;0.40;;;;;;;;;;4504971;28;20443;-63
2023/01/09 08:49:06;;;;;;;0.47;0.20;;;;;;;;;;4504077;28;20046;-64
2023/01/09 08:51:17;;;;;;;0.20;0.20;;;;;;;;;;4504260;28;20034;-65
2023/01/09 08:53:28;;;;;;;0.25;0.25;;;;;;;;;;4505268;28;20041;-63
2023/01/09 08:55:38;;;;;;;0.40;0.30;;;;;;;;;;4504411;28;20042;-62
2023/01/09 08:57:49;;;;;;;0.28;0.28;;;;;;;;;;4504453;28;20042;-62
2023/01/09 08:59:59;;;;;;;0.38;0.30;;;;;;;;;;4505386;28;20497;-62
2023/01/09 09:02:10;;;;;;;0.55;0.20;;;;;;;;;;4504830;28;20516;-62
2023/01/09 09:04:20;;;;;;;0.40;0.22;;;;;;;;;;4504691;28;20045;-62
2023/01/09 09:06:31;;;;;;;0.43;0.20;;;;;;;;;;4504341;28;20077;-62
2023/01/09 09:08:41;;;;;;;0.65;0.30;;;;;;;;;;4503864;28;20061;-63
2023/01/09 09:10:51;;;;;;;0.13;0.13;;;;;;;;;;4503944;28;20221;-63
2023/01/09 09:13:02;;;;;;;0.20;0.20;;;;;;;;;;4504744;28;20632;-62
2023/01/09 09:15:12;;;;;;;0.63;0.30;;;;;;;;;;4504681;28;20038;-63
2023/01/09 09:17:22;;;;;;;0.50;0.20;;;;;;;;;;4500763;28;20052;-63
2023/01/09 09:19:33;;;;;;;0.50;0.30;;;;;;;;;;4504498;28;20030;-62
2023/01/09 09:21:43;;;;;;;0.70;0.50;;;;;;;;;;4505014;28;20409;-63
2023/01/09 09:23:56;;;;;;;0.98;0.98;;;;;;;;;;4504593;28;20030;-63
2023/01/09 09:26:07;;;;;;;1.10;1.00;;;;;;;;;;4504139;28;20136;-63
2023/01/09 09:28:17;;;;;;;0.95;0.90;;;;;;;;;;4502901;28;20447;-62
2023/01/09 09:30:27;;;;;;;2.08;1.13;;;;;;;;;;4503702;28;20036;-62
2023/01/09 09:32:38;;;;;;;1.25;0.90;;;;;;;;;;4503343;28;20603;-63
2023/01/09 09:34:48;;;;;;;2.22;1.83;;;;;;;;;;4504261;28;20402;-62
2023/01/09 09:36:59;;;;;;;1.67;1.23;;;;;;;;;;4502494;28;20036;-62
2023/01/09 09:39:09;;;;;;;1.10;0.90;;;;;;;;;;4504024;28;20038;-63
2023/01/09 09:46:35;;;;;;;2.33;1.50;;;;;;;;;;4503193;28;20570;-62
2023/01/09 09:48:52;;;;;;;2.13;1.30;;;;;;;;;;4502408;28;20094;-63
2023/01/09 09:51:21;;;;;;;3.63;2.40;;;;;;;;;;4503577;28;20723;-63
2023/01/09 09:53:50;;;;;;;2.90;2.20;;;;;;;;;;4503216;28;20137;-62
2023/01/09 09:56:01;;;;;;;1.30;1.20;;;;;;;;;;4503505;28;20620;-63
2023/01/09 09:58:24;;;;;;;0.85;0.82;;;;;;;;;;4503322;28;20049;-63
2023/01/09 10:00:35;;;;;;;1.45;1.30;;;;;;;;;;4502745;28;20036;-63
2023/01/09 10:02:49;;;;;;;1.67;1.58;;;;;;;;;;4503604;28;20030;-62
2023/01/09 10:05:03;;;;;;;0.50;0.50;;;;;;;;;;4503535;28;20627;-63
2023/01/09 10:07:21;;;;;;;0.98;0.68;;;;;;;;;;4503608;28;20026;-63
2023/01/09 10:09:50;;;;;;;1.30;0.63;;;;;;;;;;4502716;28;20050;-62
2023/01/09 10:12:04;;;;;;;0.60;0.55;;;;;;;;;;4503575;28;20038;-62
2023/01/09 10:14:14;;;;;;;0.70;0.70;;;;;;;;;;4504187;28;20030;-63
2023/01/09 10:16:35;;;;;;;0.50;0.50;;;;;;;;;;4502657;28;20040;-62
2023/01/09 10:18:45;;;;;;;0.77;0.20;;;;;;;;;;4503662;28;20038;-63
2023/01/09 10:20:55;;;;;;;0.25;0.25;;;;;;;;;;4503359;28;20033;-63
2023/01/09 10:23:11;;;;;;;0.43;0.43;;;;;;;;;;4502805;28;20608;-63
2023/01/09 10:25:34;;;;;;;0.68;0.50;;;;;;;;;;4503572;28;20034;-62
2023/01/09 10:27:51;;;;;;;0.95;0.70;;;;;;;;;;4503272;28;20128;-62
2023/01/09 10:30:07;;;;;;;0.50;0.40;;;;;;;;;;4503174;28;20112;-62
2023/01/09 10:32:29;;;;;;;0.65;0.52;;;;;;;;;;4504077;28;20038;-66
2023/01/09 10:34:57;;;;;;;3.53;2.53;;;;;;;;;;4503636;28;20159;-62
2023/01/09 10:37:09;;;;;;;5.43;3.83;;;;;;;;;;4504033;28;20046;-63
2023/01/09 10:39:22;;;;;;;1.40;1.30;;;;;;;;;;4503565;28;20034;-62
2023/01/09 10:41:38;;;;;;;0.38;0.38;;;;;;;;;;4503053;28;20048;-63
2023/01/09 10:44:01;;;;;;;0.25;0.22;;;;;;;;;;4503156;28;20191;-63
2023/01/09 10:46:17;;;;;;;0.20;0.20;;;;;;;;;;4503595;28;20033;-62
2023/01/09 10:48:30;;;;;;;0.10;0.10;;;;;;;;;;4474835;28;21012;-63
2023/01/09 10:50:44;;;;;;;0.20;0.20;;;;;;;;;;4503215;28;20030;-62
2023/01/09 10:52:55;;;;;;;0.40;0.30;;;;;;;;;;4503167;28;20601;-62
2023/01/09 10:55:32;;;;;;;0.20;0.20;;;;;;;;;;4503466;28;20038;-62
2023/01/09 10:57:44;;;;;;;0.20;0.20;;;;;;;;;;4493874;28;20671;-62
2023/01/09 10:59:55;;;;;;;0.20;0.20;;;;;;;;;;4502577;28;20176;-62
2023/01/09 11:02:15;;;;;;;0.20;0.20;;;;;;;;;;4503465;28;20038;-63
2023/01/09 11:04:30;;;;;;;0.20;0.20;;;;;;;;;;4502749;28;20153;-62
2023/01/09 11:06:45;;;;;;;0.30;0.28;;;;;;;;;;4503113;28;20053;-62
2023/01/09 11:08:57;;;;;;;0.20;0.20;;;;;;;;;;4502043;28;20482;-62
2023/01/09 11:11:09;;;;;;;0.63;0.35;;;;;;;;;;4503120;28;20037;-62
2023/01/09 11:13:19;;;;;;;0.30;0.30;;;;;;;;;;4504016;28;20564;-63
2023/01/09 11:15:29;;;;;;;0.20;0.20;;;;;;;;;;4503330;28;20060;-62
2023/01/09 11:17:40;;;;;;;0.20;0.20;;;;;;;;;;4503529;28;20045;-62
2023/01/09 11:20:13;;;;;;;0.25;0.20;;;;;;;;;;4503330;28;20088;-63
2023/01/09 11:22:24;;;;;;;0.40;0.20;;;;;;;;;;4503668;28;20521;-63
2023/01/09 11:24:34;;;;;;;0.30;0.25;;;;;;;;;;4503260;28;20037;-62
2023/01/09 11:26:45;;;;;;;0.30;0.30;;;;;;;;;;4503727;28;20049;-63
2023/01/09 11:29:03;;;;;;;0.32;0.30;;;;;;;;;;4503114;28;20034;-63
2023/01/09 11:31:19;;;;;;;0.20;0.20;;;;;;;;;;4503212;28;20659;-62
2023/01/09 11:33:33;;;;;;;0.50;0.20;;;;;;;;;;4503419;28;20045;-63
2023/01/09 11:35:58;;;;;;;0.30;0.20;;;;;;;;;;4503971;28;20691;-64
2023/01/09 11:38:14;;;;;;;0.20;0.20;;;;;;;;;;4503184;28;20033;-65
2023/01/09 11:40:24;;;;;;;0.28;0.28;;;;;;;;;;4502772;28;20459;-63
2023/01/09 11:42:50;;;;;;;0.50;0.38;;;;;;;;;;4502146;28;20050;-63
2023/01/09 11:45:00;;;;;;;0.30;0.30;;;;;;;;;;4502568;28;20556;-62
2023/01/09 11:47:25;;;;;;;0.35;0.35;;;;;;;;;;4503081;28;20033;-63
2023/01/09 11:49:35;;;;;;;0.47;0.20;;;;;;;;;;4501944;28;20769;-63
2023/01/09 11:52:03;;;;;;;0.73;0.20;;;;;;;;;;4502414;28;20608;-63
2023/01/09 11:54:13;;;;;;;0.50;0.40;;;;;;;;;;4502698;28;20045;-63
2023/01/09 11:56:23;;;;;;;0.30;0.30;;;;;;;;;;4502274;28;20076;-62
2023/01/09 11:58:34;;;;;;;0.20;0.20;;;;;;;;;;4502652;28;20033;-63
2023/01/09 12:00:45;;;;;;;0.35;0.30;;;;;;;;;;4502293;28;20038;-63
2023/01/09 12:03:15;;;;;;;0.20;0.20;;;;;;;;;;4502986;28;20119;-62
2023/01/09 12:05:31;;;;;;;0.32;0.30;;;;;;;;;;4502676;28;20577;-63
2023/01/09 12:08:04;;;;;;;0.30;0.30;;;;;;;;;;4503152;28;20037;-63
2023/01/09 12:10:32;;;;;;;0.40;0.40;;;;;;;;;;4502041;28;20520;-63
2023/01/09 12:12:42;;;;;;;;;;;;;;;;;;4503038;28;20077;-63
2023/01/09 12:15:16;;;;;;;0.20;0.20;;;;;;;;;;4502480;28;20373;-63
2023/01/09 12:17:41;;;;;;;0.20;0.20;;;;;;;;;;4512104;28;20129;-63
2023/01/09 12:20:10;;;;;;;0.20;0.20;;;;;;;;;;4503178;28;20034;-63
2023/01/09 12:22:30;;;;;;;0.20;0.20;;;;;;;;;;4502946;28;20524;-62
2023/01/09 12:24:40;;;;;;;0.30;0.30;;;;;;;;;;4502228;28;20688;-63
2023/01/09 12:27:13;;;;;;;0.20;0.20;;;;;;;;;;4502109;28;20050;-63
2023/01/09 12:29:43;;;;;;;0.30;0.30;;;;;;;;;;4498968;28;20061;-63
2023/01/09 12:32:08;;;;;;;0.47;0.30;;;;;;;;;;4502060;28;20596;-62
2023/01/09 12:34:37;;;;;;;0.30;0.30;;;;;;;;;;4502325;28;20777;-63
2023/01/09 12:37:08;;;;;;;0.40;0.40;;;;;;;;;;4501351;28;20072;-63
2023/01/09 12:39:18;;;;;;;0.50;0.40;;;;;;;;;;4501945;28;20096;-63
2023/01/09 12:41:35;;;;;;;0.40;0.40;;;;;;;;;;4501623;28;20108;-62
2023/01/09 12:43:45;;;;;;;;;;;;;;;;;;4502562;28;20648;-63
2023/01/09 12:45:56;;;;;;;0.30;0.30;;;;;;;;;;4502035;28;19917;-63
2023/01/09 12:48:26;;;;;;;0.40;0.30;;;;;;;;;;4501664;28;20054;-64
2023/01/09 12:50:43;;;;;;;0.30;0.30;;;;;;;;;;4501539;28;20895;-63
2023/01/09 12:52:56;;;;;;;0.40;0.40;;;;;;;;;;4501734;28;20045;-62
2023/01/09 12:55:15;;;;;;;0.35;0.35;;;;;;;;;;4501678;28;20042;-62
2023/01/09 12:57:37;;;;;;;0.50;0.40;;;;;;;;;;4501044;28;20048;-62
2023/01/09 12:59:51;;;;;;;0.52;0.30;;;;;;;;;;4501160;28;20073;-63
2023/01/09 13:02:04;;;;;;;0.40;0.40;;;;;;;;;;4501878;28;20030;-63
2023/01/09 13:04:20;;;;;;;0.57;0.50;;;;;;;;;;4491545;28;20064;-65
2023/01/09 13:06:31;;;;;;;0.47;0.40;;;;;;;;;;4500193;28;20688;-64
2023/01/09 13:08:53;;;;;;;0.40;0.40;;;;;;;;;;4500749;28;20042;-65
2023/01/09 13:11:16;;;;;;;0.70;0.50;;;;;;;;;;4501050;28;20049;-63
2023/01/09 13:13:33;;;;;;;0.85;0.40;;;;;;;;;;4501191;28;20549;-62
2023/01/09 13:15:43;;;;;;;;;;;;;;;;;;4501339;28;20045;-62
2023/01/09 13:17:56;;;;;;;0.40;0.40;;;;;;;;;;4500965;28;20401;-66
2023/01/09 13:20:18;;;;;;;0.40;0.40;;;;;;;;;;4501105;28;20053;-62
2023/01/09 13:22:28;;;;;;;0.75;0.50;;;;;;;;;;4502101;28;20034;-63
2023/01/09 13:25:02;;;;;;;0.60;0.60;;;;;;;;;;4504844;28;20046;-63
2023/01/09 13:27:16;;;;;;;0.50;0.50;;;;;;;;;;4497112;28;20345;-63
2023/01/09 13:29:28;;;;;;;0.50;0.50;;;;;;;;;;4499260;28;20094;-63
2023/01/09 13:31:42;;;;;;;0.50;0.50;;;;;;;;;;4503725;28;20038;-63
2023/01/09 13:33:54;;;;;;;0.60;0.60;;;;;;;;;;4519632;28;20653;-65